Time;durP1;ratioP1;P1;durP2;ratioP2;P2;SDS_P1;SDS_P2;PMS_P1;PMS_P2;Temp;Humidity;BMP_temperature;BMP_pressure;BME280_temperature;BME280_humidity;BME280_pressure;Samples;Min_cycle;Max_cycle;Signal;HPM_P1;HPM_P2
2022/07/01 00:00:32;;;;;;;5.07;3.00;;;;;;;13.76;100.00;96481.72;5036070;28;20100;-72
2022/07/01 00:02:58;;;;;;;4.22;2.63;;;;;;;13.71;100.00;96477.16;5035299;28;20049;-72
2022/07/01 00:05:24;;;;;;;8.00;2.80;;;;;;;13.73;100.00;96493.84;5036013;28;20040;-72
2022/07/01 00:07:49;;;;;;;4.15;2.33;;;;;;;13.64;100.00;96498.94;5035640;28;20044;-73
2022/07/01 00:10:15;;;;;;;2.83;1.70;;;;;;;13.59;100.00;96496.22;5035600;28;20044;-73
2022/07/01 00:12:41;;;;;;;3.10;1.60;;;;;;;13.58;100.00;96493.81;5036976;28;20088;-72
2022/07/01 00:15:07;;;;;;;4.05;1.80;;;;;;;13.62;100.00;96489.53;5034704;28;20502;-73
2022/07/01 00:17:33;;;;;;;3.25;1.75;;;;;;;13.61;100.00;96482.50;5034305;28;20049;-72
2022/07/01 00:19:58;;;;;;;3.17;1.90;;;;;;;13.62;100.00;96481.47;5035403;28;20273;-72
2022/07/01 00:22:24;;;;;;;5.57;2.20;;;;;;;13.59;100.00;96481.97;5037456;28;20033;-73
2022/07/01 00:24:49;;;;;;;4.07;2.42;;;;;;;13.63;100.00;96480.38;5033523;28;20036;-73
2022/07/01 00:27:15;;;;;;;4.80;2.55;;;;;;;13.71;100.00;96485.22;5034668;28;20068;-72
2022/07/01 00:29:41;;;;;;;4.00;2.47;;;;;;;13.64;100.00;96493.56;5034134;28;20036;-73
2022/07/01 00:32:06;;;;;;;3.80;2.40;;;;;;;13.57;100.00;96482.25;5036084;28;20136;-72
2022/07/01 00:34:32;;;;;;;5.63;2.90;;;;;;;13.66;100.00;96480.63;5034628;28;20025;-72
2022/07/01 00:36:59;;;;;;;4.75;2.75;;;;;;;13.73;100.00;96464.25;5035931;28;20037;-73
2022/07/01 00:39:24;;;;;;;5.13;2.75;;;;;;;13.73;100.00;96469.63;5034525;28;20598;-73
2022/07/01 00:41:50;;;;;;;6.18;2.70;;;;;;;13.77;100.00;96475.25;5035853;28;20123;-73
2022/07/01 00:44:19;;;;;;;5.05;3.00;;;;;;;13.70;100.00;96490.88;5032916;28;20029;-73
2022/07/01 00:46:46;;;;;;;4.65;2.90;;;;;;;13.70;100.00;96494.38;5033333;28;20455;-73
2022/07/01 00:49:12;;;;;;;7.03;2.95;;;;;;;13.64;100.00;96485.50;5032696;28;20067;-73
2022/07/01 00:51:37;;;;;;;4.43;2.60;;;;;;;13.66;100.00;96491.41;5033961;28;20466;-73
2022/07/01 00:54:03;;;;;;;4.65;2.63;;;;;;;13.71;100.00;96497.88;5032021;28;20151;-73
2022/07/01 00:56:28;;;;;;;4.43;3.25;;;;;;;13.69;100.00;96500.81;5037500;28;20048;-72
2022/07/01 00:58:55;;;;;;;4.78;3.03;;;;;;;13.76;100.00;96511.31;5036132;28;20025;-72
2022/07/01 01:01:22;;;;;;;6.18;3.33;;;;;;;13.82;100.00;96494.09;5035263;28;20040;-72
2022/07/01 01:03:48;;;;;;;5.43;3.50;;;;;;;13.86;100.00;96496.00;5033800;28;20490;-73
2022/07/01 01:06:15;;;;;;;6.05;3.55;;;;;;;13.95;100.00;96498.97;5035579;28;20139;-73
2022/07/01 01:08:41;;;;;;;6.07;4.10;;;;;;;13.98;100.00;96493.03;5032994;28;20033;-72
2022/07/01 01:11:07;;;;;;;7.20;4.38;;;;;;;14.04;100.00;96485.78;5034698;28;20446;-73
2022/07/01 01:13:32;;;;;;;5.22;3.70;;;;;;;14.01;100.00;96487.13;5034720;28;20047;-73
2022/07/01 01:15:58;;;;;;;6.40;3.90;;;;;;;14.02;100.00;96488.75;5035817;28;20094;-72
2022/07/01 01:18:23;;;;;;;5.95;3.97;;;;;;;14.11;100.00;96492.50;5032796;28;20041;-72
2022/07/01 01:20:49;;;;;;;4.55;3.45;;;;;;;14.16;100.00;96494.38;5033334;28;20108;-73
2022/07/01 01:23:14;;;;;;;6.38;3.72;;;;;;;14.17;100.00;96509.47;5036816;28;20487;-72
2022/07/01 01:25:40;;;;;;;8.77;3.58;;;;;;;14.18;100.00;96503.00;5033828;28;20104;-72
2022/07/01 01:28:05;;;;;;;5.63;3.70;;;;;;;14.20;100.00;96511.59;5035575;28;20545;-73
2022/07/01 01:30:31;;;;;;;5.90;3.90;;;;;;;14.21;100.00;96532.06;5032980;28;20033;-73
2022/07/01 01:32:56;;;;;;;6.75;4.13;;;;;;;14.22;100.00;96536.34;5033812;28;20040;-73
2022/07/01 01:35:22;;;;;;;6.75;4.10;;;;;;;14.19;100.00;96531.53;5032000;28;20037;-73
2022/07/01 01:37:49;;;;;;;6.28;3.92;;;;;;;14.19;100.00;96543.09;5032850;28;20025;-73
2022/07/01 01:40:15;;;;;;;9.63;4.15;;;;;;;14.27;100.00;96539.06;5033806;28;20079;-72
2022/07/01 01:42:44;;;;;;;5.68;3.50;;;;;;;14.28;100.00;96556.81;5037192;28;20037;-73
2022/07/01 01:45:10;;;;;;;8.20;3.38;;;;;;;14.16;100.00;96558.94;5034404;28;20033;-72
2022/07/01 01:47:36;;;;;;;5.18;3.25;;;;;;;14.14;100.00;96561.91;5035372;28;20510;-72
2022/07/01 01:50:04;;;;;;;6.78;3.67;;;;;;;14.15;100.00;96562.72;5034686;28;20510;-73
2022/07/01 01:52:30;;;;;;;6.63;3.55;;;;;;;14.07;100.00;96557.88;5036292;28;20029;-73
2022/07/01 01:54:55;;;;;;;4.95;3.13;;;;;;;13.98;100.00;96570.25;5033543;28;20771;-73
2022/07/01 01:57:21;;;;;;;4.82;3.10;;;;;;;13.93;100.00;96571.06;5038557;28;20017;-72
2022/07/01 01:59:46;;;;;;;5.53;3.35;;;;;;;13.82;100.00;96572.09;5034994;28;20033;-73
2022/07/01 02:02:11;;;;;;;5.82;3.58;;;;;;;13.72;100.00;96566.72;5034437;28;20040;-73
2022/07/01 02:04:40;;;;;;;6.68;3.05;;;;;;;13.76;100.00;96575.84;5032672;28;20037;-73
2022/07/01 02:07:06;;;;;;;6.35;3.03;;;;;;;13.80;100.00;96564.31;5038345;28;20025;-72
2022/07/01 02:09:32;;;;;;;3.95;2.75;;;;;;;13.84;100.00;96562.69;5035852;28;20033;-73
2022/07/01 02:11:57;;;;;;;4.18;2.70;;;;;;;13.84;100.00;96573.44;5037405;28;20041;-72
2022/07/01 02:14:23;;;;;;;6.40;3.00;;;;;;;13.85;100.00;96574.25;5038198;28;20361;-72
2022/07/01 02:16:48;;;;;;;5.95;2.75;;;;;;;13.85;100.00;96582.31;5040861;28;20390;-73
2022/07/01 02:19:14;;;;;;;6.25;2.85;;;;;;;13.84;100.00;96578.00;5040227;28;20462;-73
2022/07/01 02:21:39;;;;;;;5.65;3.00;;;;;;;13.90;100.00;96571.56;5039238;28;20104;-73
2022/07/01 02:24:05;;;;;;;4.40;2.38;;;;;;;13.95;100.00;96582.34;5055758;28;20087;-73
2022/07/01 02:26:31;;;;;;;6.75;2.75;;;;;;;13.90;100.00;96569.69;5036401;28;20033;-73
2022/07/01 02:28:58;;;;;;;6.10;2.97;;;;;;;13.91;100.00;96583.94;5039066;28;20145;-72
2022/07/01 02:31:23;;;;;;;3.58;2.00;;;;;;;13.87;100.00;96591.75;5051987;28;20045;-72
2022/07/01 02:33:49;;;;;;;5.53;2.45;;;;;;;13.90;100.00;96593.09;5041222;28;20273;-73
2022/07/01 02:36:14;;;;;;;4.15;2.33;;;;;;;13.95;100.00;96590.44;5047903;28;20053;-73
2022/07/01 02:38:40;;;;;;;4.95;2.10;;;;;;;13.96;100.00;96597.41;5045560;28;20028;-73
2022/07/01 02:41:05;;;;;;;4.28;2.42;;;;;;;14.01;100.00;96605.50;5038455;28;20360;-73
2022/07/01 02:43:31;;;;;;;4.43;2.80;;;;;;;13.99;100.00;96606.81;5039003;28;20403;-72
2022/07/01 02:45:57;;;;;;;4.80;2.47;;;;;;;14.04;100.00;96615.72;5039135;28;20111;-73
2022/07/01 02:48:23;;;;;;;4.75;2.50;;;;;;;14.02;100.00;96617.06;5038167;28;20308;-73
2022/07/01 02:50:49;;;;;;;4.88;2.85;;;;;;;13.94;100.00;96608.44;5037821;28;20037;-73
2022/07/01 02:53:14;;;;;;;4.95;2.65;;;;;;;13.97;100.00;96617.84;5037242;28;20043;-73
2022/07/01 02:55:39;;;;;;;4.25;2.05;;;;;;;13.88;100.00;96632.91;5036339;28;20036;-73
2022/07/01 02:58:05;;;;;;;4.00;2.00;;;;;;;13.81;100.00;96625.09;5039328;28;20041;-73
2022/07/01 03:00:30;;;;;;;3.20;1.75;;;;;;;13.85;100.00;96622.66;5035906;28;20059;-73
2022/07/01 03:02:56;;;;;;;4.28;1.95;;;;;;;13.83;100.00;96622.94;5036861;28;20047;-73
2022/07/01 03:05:21;;;;;;;4.50;2.20;;;;;;;13.85;100.00;96615.44;5035743;28;20478;-72
2022/07/01 03:07:47;;;;;;;4.60;2.22;;;;;;;13.88;100.00;96614.88;5038624;28;20036;-72
2022/07/01 03:10:13;;;;;;;4.07;2.00;;;;;;;13.89;100.00;96603.03;5036167;28;20025;-73
2022/07/01 03:12:40;;;;;;;3.45;1.88;;;;;;;13.87;100.00;96602.50;5037813;28;20380;-72
2022/07/01 03:15:09;;;;;;;3.88;2.03;;;;;;;13.89;100.00;96613.00;5038494;28;20415;-73
2022/07/01 03:17:37;;;;;;;3.53;2.03;;;;;;;13.88;100.00;96598.75;5037079;28;20067;-73
2022/07/01 03:20:04;;;;;;;5.25;2.17;;;;;;;13.87;100.00;96604.41;5035335;28;20041;-73
2022/07/01 03:22:31;;;;;;;6.70;2.10;;;;;;;13.80;100.00;96604.66;5038777;28;20084;-73
2022/07/01 03:24:56;;;;;;;5.18;2.20;;;;;;;13.69;100.00;96604.88;5037707;28;20034;-73
2022/07/01 03:27:23;;;;;;;4.38;2.08;;;;;;;13.66;100.00;96582.81;5036937;28;20041;-72
2022/07/01 03:29:49;;;;;;;4.18;2.22;;;;;;;13.63;100.00;96569.09;5036871;28;20456;-72
2022/07/01 03:32:15;;;;;;;3.80;2.17;;;;;;;13.63;100.00;96555.66;5035875;28;20059;-73
2022/07/01 03:34:42;;;;;;;4.50;2.17;;;;;;;13.62;100.00;96557.56;5036316;28;20154;-72
2022/07/01 03:37:09;;;;;;;3.78;1.90;;;;;;;13.56;100.00;96566.66;5034948;28;20049;-72
2022/07/01 03:39:36;;;;;;;5.13;1.88;;;;;;;13.46;100.00;96572.00;5035369;28;20018;-73
2022/07/01 03:42:03;;;;;;;3.95;1.60;;;;;;;13.37;100.00;96565.50;5038541;28;20546;-72
2022/07/01 03:44:28;;;;;;;5.65;1.85;;;;;;;13.36;100.00;96566.59;5035963;28;20434;-73
2022/07/01 03:46:55;;;;;;;4.30;1.98;;;;;;;13.28;100.00;96562.53;5036645;28;20627;-73
2022/07/01 03:49:21;;;;;;;3.75;1.65;;;;;;;13.27;100.00;96568.97;5036243;28;20100;-72
2022/07/01 03:51:47;;;;;;;4.65;1.95;;;;;;;13.27;100.00;96576.22;5039126;28;20033;-73
2022/07/01 03:54:30;;;;;;;6.30;2.00;;;;;;;13.30;100.00;96578.38;5035722;28;20210;-72
2022/07/01 03:56:58;;;;;;;4.80;1.52;;;;;;;13.21;100.00;96590.72;5038622;28;20035;-73
2022/07/01 03:59:28;;;;;;;3.50;1.90;;;;;;;13.14;100.00;96579.34;5032584;28;20101;-73
2022/07/01 04:01:54;;;;;;;4.65;1.52;;;;;;;13.14;100.00;96580.16;5035256;28;20032;-72
2022/07/01 04:04:21;;;;;;;3.50;1.52;;;;;;;13.20;100.00;96579.16;5031595;28;20319;-73
2022/07/01 04:06:47;;;;;;;4.07;1.60;;;;;;;13.21;100.00;96580.75;5034221;28;20048;-73
2022/07/01 04:09:14;;;;;;;4.10;1.73;;;;;;;13.22;100.00;96582.38;5033878;28;20818;-72
2022/07/01 04:11:41;;;;;;;3.00;1.60;;;;;;;13.21;100.00;96570.00;5035578;28;20102;-73
2022/07/01 04:14:09;;;;;;;5.78;1.70;;;;;;;13.25;100.00;96578.38;5036446;28;20727;-72
2022/07/01 04:16:34;;;;;;;4.82;1.70;;;;;;;13.25;100.00;96583.75;5036659;28;20051;-72
2022/07/01 04:19:00;;;;;;;4.38;1.60;;;;;;;13.26;100.00;96580.00;5035984;28;20037;-73
2022/07/01 04:24:10;;;;;;;4.18;1.80;;;;;;;13.37;100.00;96585.13;5036648;28;20122;-74
2022/07/01 04:26:36;;;;;;;3.72;2.13;;;;;;;13.38;100.00;96569.81;5034600;28;20036;-72
2022/07/01 04:29:02;;;;;;;6.40;2.13;;;;;;;13.32;100.00;96574.38;5033045;28;20111;-71
2022/07/01 04:31:28;;;;;;;3.53;1.70;;;;;;;13.38;100.00;96576.03;5035385;28;20432;-72
2022/07/01 04:33:54;;;;;;;4.60;2.10;;;;;;;13.48;100.00;96574.44;5033482;28;20037;-72
2022/07/01 04:36:20;;;;;;;5.68;2.40;;;;;;;13.54;100.00;96576.88;5035927;28;20112;-72
2022/07/01 04:38:46;;;;;;;4.57;1.95;;;;;;;13.58;100.00;96564.50;5035918;28;20076;-72
2022/07/01 04:43:56;;;;;;;3.95;2.33;;;;;;;13.50;100.00;96572.28;5050544;28;20261;-74
2022/07/01 04:46:21;;;;;;;3.40;1.90;;;;;;;13.42;100.00;96572.78;5032515;28;20095;-73
2022/07/01 04:48:46;;;;;;;3.72;2.03;;;;;;;13.46;100.00;96561.25;5038163;28;20104;-73
2022/07/01 04:51:12;;;;;;;4.82;2.00;;;;;;;12.98;100.00;96560.47;5035070;28;20075;-73
2022/07/01 04:53:37;;;;;;;4.68;2.03;;;;;;;13.21;100.00;96567.34;5016596;28;20470;-73
2022/07/01 04:56:03;;;;;;;3.60;1.80;;;;;;;13.29;100.00;96582.16;5035873;28;20450;-73
2022/07/01 04:58:28;;;;;;;3.83;2.10;;;;;;;13.41;100.00;96595.38;5038215;28;20035;-75
2022/07/01 05:00:54;;;;;;;5.13;2.15;;;;;;;13.49;100.00;96582.22;5034714;28;20068;-71
2022/07/01 05:03:20;;;;;;;3.80;2.00;;;;;;;13.62;100.00;96564.81;5037717;28;20399;-72
2022/07/01 05:05:45;;;;;;;5.05;2.05;;;;;;;13.68;100.00;96570.97;5035621;28;20108;-72
2022/07/01 05:08:10;;;;;;;4.28;2.00;;;;;;;13.65;100.00;96583.09;5036922;28;20087;-73
2022/07/01 05:10:36;;;;;;;4.53;2.10;;;;;;;13.72;100.00;96593.59;5040858;28;20025;-73
2022/07/01 05:13:02;;;;;;;6.95;2.55;;;;;;;13.60;100.00;96623.38;5038167;28;20233;-73
2022/07/01 05:15:28;;;;;;;7.38;3.45;;;;;;;13.63;100.00;96628.25;5037916;28;20033;-73
2022/07/01 05:23:23;;;;;;;6.28;3.17;;;;;;;13.69;100.00;96642.50;5035324;28;20275;-73
2022/07/01 05:25:48;;;;;;;10.75;3.63;;;;;;;13.66;100.00;96636.59;5037056;28;20583;-73
2022/07/01 05:28:14;;;;;;;6.85;3.17;;;;;;;13.69;100.00;96637.13;5034525;28;20033;-73
2022/07/01 05:30:39;;;;;;;3.95;2.28;;;;;;;13.68;100.00;96630.94;5032818;28;20788;-73
2022/07/01 05:33:06;;;;;;;4.78;2.25;;;;;;;13.67;100.00;96621.28;5034072;28;20037;-73
2022/07/01 05:35:32;;;;;;;6.05;1.95;;;;;;;13.75;100.00;96634.19;5021692;28;20048;-73
2022/07/01 05:37:59;;;;;;;5.95;2.05;;;;;;;13.60;100.00;96637.66;5039527;28;20044;-73
2022/07/01 05:40:28;;;;;;;3.63;1.65;;;;;;;13.57;100.00;96643.56;5029926;28;20426;-73
2022/07/01 05:42:53;;;;;;;4.32;1.77;;;;;;;13.65;100.00;96645.75;5038113;28;20128;-73
2022/07/01 05:45:19;;;;;;;4.18;1.80;;;;;;;13.70;100.00;96652.22;5001533;28;20115;-73
2022/07/01 05:47:44;;;;;;;5.57;1.63;;;;;;;13.81;100.00;96662.75;5033368;28;20036;-73
2022/07/01 05:50:10;;;;;;;4.00;1.90;;;;;;;13.83;100.00;96655.22;5036938;28;20033;-73
2022/07/01 05:52:36;;;;;;;8.20;1.92;;;;;;;13.88;100.00;96663.31;5018591;28;20036;-74
2022/07/01 05:55:01;;;;;;;3.95;1.85;;;;;;;13.89;100.00;96674.88;5036037;28;20037;-73
2022/07/01 05:57:27;;;;;;;3.72;1.40;;;;;;;13.93;100.00;96671.41;5037609;28;20036;-73
2022/07/01 05:59:53;;;;;;;3.95;1.58;;;;;;;13.94;100.00;96658.75;5036752;28;20057;-73
2022/07/01 06:02:18;;;;;;;5.25;1.50;;;;;;;14.03;100.00;96661.72;5033612;28;20571;-74
2022/07/01 06:04:44;;;;;;;3.17;1.30;;;;;;;14.13;100.00;96667.94;5029390;28;20075;-73
2022/07/01 06:07:11;;;;;;;9.35;2.03;;;;;;;14.28;100.00;96671.75;5021941;28;20041;-73
2022/07/01 06:09:37;;;;;;;3.65;1.30;;;;;;;14.42;100.00;96673.66;5033040;28;20036;-73
2022/07/01 06:12:04;;;;;;;5.90;1.50;;;;;;;14.30;100.00;96666.88;5033568;28;20034;-73
2022/07/01 06:14:29;;;;;;;5.65;1.33;;;;;;;14.40;100.00;96672.31;5031937;28;20097;-73
2022/07/01 06:16:55;;;;;;;3.33;1.60;;;;;;;14.34;100.00;96674.19;5035016;28;20105;-73
2022/07/01 06:19:20;;;;;;;4.90;1.58;;;;;;;14.38;100.00;96672.56;5033080;28;20060;-73
2022/07/01 06:21:46;;;;;;;3.58;1.48;;;;;;;14.57;100.00;96686.34;5036225;28;20372;-73
2022/07/01 06:24:12;;;;;;;3.97;1.50;;;;;;;14.71;100.00;96692.03;5033112;28;20060;-73
2022/07/01 06:26:37;;;;;;;4.03;1.70;;;;;;;14.89;100.00;96699.56;5037310;28;20048;-73
2022/07/01 06:29:03;;;;;;;2.67;1.33;;;;;;;14.94;100.00;96688.78;5036647;28;20085;-73
2022/07/01 06:31:29;;;;;;;7.07;1.63;;;;;;;14.88;100.00;96694.44;5019840;28;20036;-73
2022/07/01 06:33:55;;;;;;;3.00;1.50;;;;;;;14.77;100.00;96690.94;5034276;28;20577;-74
2022/07/01 06:36:20;;;;;;;8.25;3.47;;;;;;;14.76;100.00;96684.72;5033749;28;20434;-73
2022/07/01 06:38:46;;;;;;;9.32;3.28;;;;;;;14.86;100.00;96675.03;5033939;28;20033;-73
2022/07/01 06:41:27;;;;;;;8.80;2.60;;;;;;;14.85;100.00;96673.41;5032047;28;20116;-73
2022/07/01 06:43:56;;;;;;;6.65;2.72;;;;;;;14.75;100.00;96688.50;5037276;28;20037;-73
2022/07/01 06:46:22;;;;;;;7.38;3.35;;;;;;;14.74;100.00;96689.59;5015328;28;20099;-73
2022/07/01 06:48:47;;;;;;;8.25;3.20;;;;;;;14.51;100.00;96682.03;5051271;28;20037;-73
2022/07/01 06:51:13;;;;;;;6.75;3.20;;;;;;;14.38;100.00;96677.13;5018390;28;20037;-73
2022/07/01 06:53:39;;;;;;;8.85;2.78;;;;;;;14.48;100.00;96679.88;5039830;28;20075;-74
2022/07/01 06:56:05;;;;;;;8.45;2.05;;;;;;;14.73;100.00;96685.28;5037525;28;20224;-73
2022/07/01 06:58:31;;;;;;;4.57;1.25;;;;;;;14.87;100.00;96690.94;5040731;28;20089;-73
2022/07/01 07:00:57;;;;;;;4.20;1.70;;;;;;;14.91;100.00;96675.84;5038797;28;20055;-73
2022/07/01 07:03:22;;;;;;;4.47;1.20;;;;;;;15.00;100.00;96686.88;5038349;28;20049;-73
2022/07/01 07:05:48;;;;;;;5.75;2.33;;;;;;;14.92;100.00;96700.91;5035370;28;20071;-74
2022/07/01 07:08:13;;;;;;;4.03;1.52;;;;;;;14.70;100.00;96687.69;5041144;28;20047;-73
2022/07/01 07:10:39;;;;;;;6.72;1.92;;;;;;;14.50;100.00;96666.97;5039773;28;20024;-73
2022/07/01 07:13:06;;;;;;;4.13;1.40;;;;;;;14.68;100.00;96671.81;5038438;28;20049;-73
2022/07/01 07:15:33;;;;;;;4.10;1.73;;;;;;;14.79;100.00;96690.69;5033816;28;20035;-73
2022/07/01 07:17:58;;;;;;;4.15;1.65;;;;;;;14.88;100.00;96697.16;5053790;28;20071;-73
2022/07/01 07:20:25;;;;;;;5.45;1.60;;;;;;;15.09;100.00;96679.84;5035145;28;20539;-73
2022/07/01 07:22:50;;;;;;;4.75;1.90;;;;;;;15.24;100.00;96682.53;5041945;28;20045;-73
2022/07/01 07:25:19;;;;;;;6.53;1.60;;;;;;;15.29;100.00;96695.22;5037228;28;20046;-74
2022/07/01 07:27:46;;;;;;;6.25;1.80;;;;;;;15.28;100.00;96696.28;5037264;28;20045;-73
2022/07/01 07:30:16;;;;;;;5.07;1.40;;;;;;;15.27;100.00;96706.25;5037859;28;20035;-73
2022/07/01 07:32:42;;;;;;;4.30;2.13;;;;;;;15.07;100.00;96719.75;5037685;28;20669;-73
2022/07/01 07:35:09;;;;;;;4.40;1.70;;;;;;;14.83;100.00;96732.16;5038574;28;20037;-73
2022/07/01 07:37:35;;;;;;;4.53;1.35;;;;;;;14.69;100.00;96745.31;5040874;28;20538;-73
2022/07/01 07:40:03;;;;;;;4.25;1.63;;;;;;;14.60;100.00;96749.63;5022857;28;20119;-73
2022/07/01 07:42:29;;;;;;;9.68;1.83;;;;;;;14.56;100.00;96760.13;5038653;28;20049;-73
2022/07/01 07:44:55;;;;;;;4.60;1.85;;;;;;;14.52;100.00;96763.63;5007848;28;20474;-73
2022/07/01 07:47:20;;;;;;;4.35;1.75;;;;;;;14.56;100.00;96759.34;5039329;28;20086;-73
2022/07/01 07:49:46;;;;;;;4.10;1.70;;;;;;;14.66;100.00;96749.38;5037530;28;20377;-73
2022/07/01 07:52:11;;;;;;;3.85;1.75;;;;;;;14.88;100.00;96746.44;5052916;28;20579;-73
2022/07/01 07:54:38;;;;;;;5.90;1.90;;;;;;;15.06;100.00;96742.41;5018926;28;20078;-74
2022/07/01 07:57:05;;;;;;;5.30;1.83;;;;;;;15.19;100.00;96747.25;5038204;28;20041;-74
2022/07/01 07:59:30;;;;;;;6.55;1.40;;;;;;;15.02;100.00;96749.41;5036554;28;20051;-73
2022/07/01 08:01:56;;;;;;;4.93;1.55;;;;;;;14.96;100.00;96762.06;5039100;28;20485;-73
2022/07/01 08:04:22;;;;;;;6.90;1.60;;;;;;;15.08;100.00;96763.69;5036294;28;20033;-73
2022/07/01 08:06:47;;;;;;;3.83;1.48;;;;;;;15.18;100.00;96764.50;5051864;28;20044;-73
2022/07/01 08:09:13;;;;;;;6.50;1.48;;;;;;;15.22;100.00;96786.31;5018265;28;20047;-73
2022/07/01 08:11:38;;;;;;;9.77;1.50;;;;;;;15.32;100.00;96775.53;5037856;28;20072;-74
2022/07/01 08:14:04;;;;;;;5.35;1.60;;;;;;;15.58;100.00;96779.03;5038256;28;20087;-73
2022/07/01 08:16:30;;;;;;;5.57;1.35;;;;;;;15.82;100.00;96795.47;5037381;28;20430;-73
2022/07/01 08:18:56;;;;;;;8.45;1.58;;;;;;;15.84;100.00;96782.50;5037140;28;20037;-73
2022/07/01 08:21:21;;;;;;;6.38;1.50;;;;;;;16.08;100.00;96785.38;5035946;28;20036;-73
2022/07/01 08:23:47;;;;;;;7.90;1.40;;;;;;;16.19;100.00;96795.09;5039239;28;20131;-73
2022/07/01 08:26:14;;;;;;;3.67;1.42;;;;;;;16.22;100.00;96791.81;5030310;28;20037;-73
2022/07/01 08:28:40;;;;;;;6.53;1.83;;;;;;;16.30;100.00;96785.84;5036052;28;20033;-72
2022/07/01 08:31:06;;;;;;;4.80;1.58;;;;;;;16.38;100.00;96781.75;5016616;28;20033;-73
2022/07/01 08:33:32;;;;;;;4.47;1.60;;;;;;;16.67;100.00;96776.47;5035236;28;20084;-73
2022/07/01 08:35:57;;;;;;;4.93;1.55;;;;;;;16.76;100.00;96769.44;5055073;28;20075;-73
2022/07/01 08:38:23;;;;;;;3.97;1.30;;;;;;;16.75;100.00;96767.81;5038802;28;20032;-74
2022/07/01 08:40:49;;;;;;;5.80;1.63;;;;;;;16.55;100.00;96759.78;5029420;28;20383;-73
2022/07/01 08:43:14;;;;;;;4.30;1.30;;;;;;;16.13;100.00;96750.28;5038730;28;20032;-73
2022/07/01 08:45:41;;;;;;;3.85;1.60;;;;;;;15.83;100.00;96743.91;5037627;28;20071;-73
2022/07/01 08:48:07;;;;;;;9.55;1.40;;;;;;;16.00;100.00;96748.97;5050623;28;20035;-74
2022/07/01 08:50:37;;;;;;;5.88;1.33;;;;;;;16.22;100.00;96756.72;5035942;28;20029;-73
2022/07/01 08:53:04;;;;;;;5.85;1.65;;;;;;;16.18;100.00;96763.75;5056208;28;20083;-74
2022/07/01 08:55:30;;;;;;;4.70;1.30;;;;;;;16.16;100.00;96745.13;5036995;28;20825;-74
2022/07/01 08:57:56;;;;;;;6.20;1.25;;;;;;;16.24;100.00;96751.84;5037006;28;20139;-73
2022/07/01 09:00:22;;;;;;;5.00;1.10;;;;;;;16.27;100.00;96778.31;5032770;28;20112;-73
2022/07/01 09:02:58;;;;;;;5.10;1.40;;;;;;;16.25;100.00;96793.16;5052962;28;20538;-73
2022/07/01 09:05:25;;;;;;;4.63;1.50;;;;;;;16.35;100.00;96772.34;5034891;28;20068;-74
2022/07/01 09:08:00;;;;;;;7.97;1.30;;;;;;;16.53;100.00;96751.97;5034633;28;20025;-73
2022/07/01 09:10:26;;;;;;;4.22;1.30;;;;;;;16.84;100.00;96746.41;5036882;28;20033;-73
2022/07/01 09:12:52;;;;;;;3.60;1.15;;;;;;;16.95;100.00;96750.63;5036858;28;20546;-73
2022/07/01 09:15:25;;;;;;;4.22;1.10;;;;;;;16.96;100.00;96752.25;5035143;28;20106;-74
2022/07/01 09:18:14;;;;;;;6.57;1.50;;;;;;;16.91;100.00;96753.09;5039218;28;20057;-74
2022/07/01 09:20:42;;;;;;;4.30;1.30;;;;;;;17.06;100.00;96749.50;5006920;28;20049;-74
2022/07/01 09:23:11;;;;;;;4.78;1.25;;;;;;;17.29;100.00;96747.13;5050277;28;20448;-74
2022/07/01 09:25:44;;;;;;;4.45;1.48;;;;;;;17.43;100.00;96767.00;5035515;28;20029;-74
2022/07/01 09:28:14;;;;;;;3.40;0.90;;;;;;;17.21;100.00;96784.50;5035073;28;20038;-73
2022/07/01 09:30:43;;;;;;;3.53;1.30;;;;;;;17.03;100.00;96781.66;5015679;28;20064;-74
2022/07/01 09:33:15;;;;;;;2.15;0.85;;;;;;;17.31;100.00;96780.09;5018406;28;20055;-74
2022/07/01 09:35:42;;;;;;;4.25;1.00;;;;;;;18.17;100.00;96794.69;5032621;28;20037;-74
2022/07/01 09:38:14;;;;;;;3.28;1.02;;;;;;;18.52;100.00;96791.56;5035193;28;20104;-74
2022/07/01 09:40:47;;;;;;;3.20;1.08;;;;;;;18.51;100.00;96789.13;5054339;28;20025;-74
2022/07/01 09:43:30;;;;;;;3.72;1.20;;;;;;;18.53;100.00;96793.19;5038298;28;20104;-74
2022/07/01 09:45:59;;;;;;;6.22;1.10;;;;;;;18.40;100.00;96788.47;5034321;28;20036;-73
2022/07/01 09:48:44;;;;;;;4.32;1.33;;;;;;;18.59;100.00;96770.31;5034130;28;20565;-74
2022/07/01 09:51:12;;;;;;;4.05;0.95;;;;;;;18.21;100.00;96780.31;5036137;28;20325;-73
2022/07/01 09:53:38;;;;;;;4.20;0.93;;;;;;;18.98;100.00;96788.22;5037797;28;20025;-73
2022/07/01 09:56:04;;;;;;;3.78;1.02;;;;;;;19.30;100.00;96789.34;5048880;28;20579;-73
2022/07/01 09:58:32;;;;;;;2.75;0.80;;;;;;;19.16;100.00;96789.31;5038248;28;20578;-73
2022/07/01 10:00:58;;;;;;;3.08;1.05;;;;;;;19.11;100.00;96787.47;5036931;28;20033;-74
2022/07/01 10:03:26;;;;;;;8.63;1.50;;;;;;;19.41;100.00;96785.38;5034604;28;20033;-73
2022/07/01 10:06:07;;;;;;;3.38;1.10;;;;;;;19.94;96.22;96771.44;5017259;28;20082;-73
2022/07/01 10:08:57;;;;;;;6.40;1.40;;;;;;;19.50;97.05;96775.47;5036246;28;20026;-73
2022/07/01 10:11:38;;;;;;;4.18;1.20;;;;;;;19.30;99.71;96781.22;5022002;28;20033;-74
2022/07/01 10:14:06;;;;;;;5.25;1.20;;;;;;;18.90;100.00;96778.03;5014556;28;20094;-74
2022/07/01 10:16:32;;;;;;;5.32;1.25;;;;;;;18.65;100.00;96773.75;5032625;28;20049;-74
2022/07/01 10:18:58;;;;;;;5.05;1.20;;;;;;;19.17;100.00;96764.63;5036795;28;20041;-73
2022/07/01 10:21:29;;;;;;;7.03;1.02;;;;;;;19.97;100.00;96760.78;4409043;28;10000545;-74
2022/07/01 10:24:17;;;;;;;3.17;1.13;;;;;;;20.78;93.03;96774.63;5051657;28;20248;-73
2022/07/01 10:26:44;;;;;;;3.88;1.30;;;;;;;21.74;88.49;96762.53;5017870;28;20041;-73
2022/07/01 10:29:35;;;;;;;5.00;1.23;;;;;;;20.73;91.36;96773.94;5035261;28;20043;-74
2022/07/01 10:32:25;;;;;;;3.35;1.23;;;;;;;20.33;94.48;96779.09;5015814;28;20032;-73
2022/07/01 10:35:02;;;;;;;3.38;1.27;;;;;;;20.33;95.52;96762.78;5036060;28;20431;-73
2022/07/01 10:37:27;;;;;;;4.97;0.98;;;;;;;20.87;92.73;96772.00;5033758;28;20037;-71
2022/07/01 10:39:59;;;;;;;5.10;1.10;;;;;;;20.83;90.91;96776.41;5032792;28;20037;-73
2022/07/01 10:42:57;;;;;;;3.50;1.20;;;;;;;21.33;89.40;96782.63;5040911;28;20197;-76
2022/07/01 10:45:23;;;;;;;3.65;1.10;;;;;;;21.72;88.08;96777.59;5006260;28;20056;-74
2022/07/01 10:48:17;;;;;;;4.90;1.00;;;;;;;21.70;86.87;96780.59;5052425;28;20033;-73
2022/07/01 10:50:45;;;;;;;3.60;0.90;;;;;;;21.16;90.58;96793.31;5036218;28;20556;-75
2022/07/01 10:53:11;;;;;;;4.88;1.00;;;;;;;20.52;92.38;96789.88;5021902;28;20025;-73
2022/07/01 10:55:44;;;;;;;2.42;0.93;;;;;;;20.45;92.33;96784.84;5054783;28;20568;-73
2022/07/01 10:58:10;;;;;;;2.80;1.10;;;;;;;20.87;92.20;96785.59;5034963;28;20206;-73
2022/07/01 11:00:39;;;;;;;6.70;1.67;;;;;;;21.90;84.85;96779.28;5035527;28;20084;-73
2022/07/01 11:03:26;;;;;;;4.18;1.75;;;;;;;22.42;84.55;96779.50;5031338;28;20037;-73
2022/07/01 11:05:55;;;;;;;4.93;1.15;;;;;;;22.03;86.25;96789.28;5035152;28;20041;-74
2022/07/01 11:08:21;;;;;;;5.30;1.30;;;;;;;22.35;81.78;96777.22;5017436;28;20033;-74
2022/07/01 11:10:54;;;;;;;4.72;1.15;;;;;;;22.85;78.53;96776.88;5054340;28;20115;-74
2022/07/01 11:13:20;;;;;;;6.15;1.10;;;;;;;23.05;77.03;96791.81;5013990;28;20037;-75
2022/07/01 11:15:47;;;;;;;7.97;1.70;;;;;;;23.46;74.46;96783.13;5054876;28;20037;-74
2022/07/01 11:18:14;;;;;;;6.78;1.27;;;;;;;23.93;63.48;96772.28;5038935;28;20045;-75
2022/07/01 11:20:40;;;;;;;4.72;1.05;;;;;;;23.65;72.70;96777.31;5038012;28;20455;-74
2022/07/01 11:23:05;;;;;;;4.55;1.40;;;;;;;23.12;75.40;96774.97;5015331;28;20041;-74
2022/07/01 11:25:31;;;;;;;4.72;1.10;;;;;;;22.28;79.94;96776.09;5023729;28;20029;-74
2022/07/01 11:27:57;;;;;;;3.88;1.00;;;;;;;21.82;80.27;96783.56;5050906;28;20394;-74
2022/07/01 11:30:23;;;;;;;5.10;1.27;;;;;;;21.56;83.31;96788.88;5036609;28;20552;-75
2022/07/01 11:32:54;;;;;;;3.90;1.60;;;;;;;21.31;84.26;96795.72;5034241;28;20037;-75
2022/07/01 11:40:59;;;;;;;2.97;0.90;;;;;;;21.73;82.96;96796.31;5052641;28;20029;-73
2022/07/01 11:43:31;;;;;;;3.13;1.08;;;;;;;22.71;78.05;96800.72;5034219;28;20033;-75